createdAt,value
2022-11-29T00:01:32.872Z,89513.63
2022-11-29T00:04:00.297Z,89506.22
2022-11-29T00:06:29.830Z,89504.22
2022-11-29T00:08:59.506Z,89505.50
2022-11-29T00:11:29.524Z,89511.78
2022-11-29T00:13:56.402Z,89509.78
2022-11-29T00:16:23.299Z,89517.41
2022-11-29T00:18:50.337Z,89512.44
2022-11-29T00:21:17.313Z,89507.69
2022-11-29T00:23:44.124Z,89512.91
2022-11-29T00:26:11.020Z,89518.00
2022-11-29T00:28:37.730Z,89513.34
2022-11-29T00:31:19.451Z,89505.88
2022-11-29T00:33:46.934Z,89501.66
2022-11-29T00:36:14.087Z,89512.66
2022-11-29T00:38:41.982Z,89518.22
2022-11-29T00:41:09.633Z,89504.75
2022-11-29T00:43:37.040Z,89515.59
2022-11-29T00:46:04.576Z,89495.03
2022-11-29T00:48:31.925Z,89496.56
2022-11-29T00:50:58.856Z,89496.13
2022-11-29T00:53:25.780Z,89509.91
2022-11-29T00:55:53.473Z,89505.25
2022-11-29T00:58:21.523Z,89496.31
2022-11-29T01:00:48.898Z,89496.78
2022-11-29T01:03:16.893Z,89501.44
2022-11-29T01:05:44.110Z,89504.41
2022-11-29T01:08:12.120Z,89489.44
2022-11-29T01:10:38.953Z,89492.94
2022-11-29T01:13:06.267Z,89498.81
2022-11-29T01:15:33.401Z,89494.59
2022-11-29T01:18:00.302Z,89499.84
2022-11-29T01:20:27.801Z,89495.94
2022-11-29T01:22:54.675Z,89500.59
2022-11-29T01:25:21.556Z,89498.63
2022-11-29T01:27:48.307Z,89502.66
2022-11-29T01:30:15.487Z,89496.19
2022-11-29T01:32:42.588Z,89493.19
2022-11-29T01:35:09.626Z,89489.59
2022-11-29T01:37:36.582Z,89491.16
2022-11-29T01:40:04.424Z,89497.50
2022-11-29T01:42:31.283Z,89490.13
2022-11-29T01:45:19.154Z,89491.59
2022-11-29T01:47:46.538Z,89486.31
2022-11-29T01:50:13.759Z,89495.94
2022-11-29T01:52:42.061Z,89491.59
2022-11-29T01:55:09.729Z,89473.09
2022-11-29T01:57:40.300Z,89478.91
2022-11-29T02:00:15.541Z,89482.16
2022-11-29T02:02:47.633Z,89483.69
2022-11-29T02:05:17.213Z,89489.06
2022-11-29T02:07:46.757Z,89489.03
2022-11-29T02:10:15.602Z,89495.25
2022-11-29T02:13:30.047Z,89488.03
2022-11-29T02:16:10.532Z,89501.19
2022-11-29T02:18:48.771Z,89501.31
2022-11-29T02:21:19.324Z,89507.31
2022-11-29T02:24:06.193Z,89509.88
2022-11-29T02:27:18.008Z,89510.84
2022-11-29T02:30:06.393Z,89509.53
2022-11-29T02:33:13.030Z,89509.28
2022-11-29T02:36:37.032Z,89508.03
2022-11-29T02:39:25.394Z,89520.03
2022-11-29T02:42:02.284Z,89516.25
2022-11-29T02:44:49.076Z,89512.44
2022-11-29T02:47:24.875Z,89513.91
2022-11-29T02:50:13.385Z,89517.25
2022-11-29T02:53:02.098Z,89519.56
2022-11-29T02:55:45.447Z,89525.31
2022-11-29T02:58:27.436Z,89520.56
2022-11-29T03:01:09.193Z,89509.47
2022-11-29T03:03:54.329Z,89511.19
2022-11-29T03:06:55.069Z,89511.84
2022-11-29T03:09:24.466Z,89518.44
2022-11-29T03:12:03.179Z,89528.84
2022-11-29T03:14:54.576Z,89529.72
2022-11-29T03:17:52.371Z,89530.94
2022-11-29T03:20:24.797Z,89530.94
2022-11-29T03:23:23.722Z,89526.91
2022-11-29T03:26:18.969Z,89525.06
2022-11-29T03:29:07.744Z,89525.69
2022-11-29T03:31:47.974Z,89520.28
2022-11-29T03:34:24.481Z,89531.06
2022-11-29T03:37:10.047Z,89525.38
2022-11-29T03:39:59.766Z,89521.28
2022-11-29T03:42:34.470Z,89522.31
2022-11-29T03:45:03.946Z,89529.47
2022-11-29T03:47:37.437Z,89519.81
2022-11-29T03:50:14.010Z,89522.63
2022-11-29T03:52:54.660Z,89536.94
2022-11-29T03:55:21.583Z,89536.94
2022-11-29T03:58:01.696Z,89534.59
2022-11-29T04:00:45.092Z,89534.34
2022-11-29T04:03:33.151Z,89518.34
2022-11-29T04:06:24.770Z,89528.84
2022-11-29T04:09:20.609Z,89534.44
2022-11-29T04:12:08.564Z,89527.28
2022-11-29T04:15:12.825Z,89540.38
2022-11-29T04:18:00.290Z,89546.50
2022-11-29T04:20:48.680Z,89551.06
2022-11-29T04:24:03.426Z,89560.59
2022-11-29T04:27:05.140Z,89557.63
2022-11-29T04:29:37.967Z,89541.19
2022-11-29T04:32:30.130Z,89551.22
2022-11-29T04:35:37.430Z,89554.78
2022-11-29T04:38:41.560Z,89551.53
2022-11-29T04:41:42.490Z,89549.75
2022-11-29T04:44:27.482Z,89563.13
2022-11-29T04:47:05.241Z,89574.09
2022-11-29T04:49:58.404Z,89583.97
2022-11-29T04:52:31.319Z,89575.78
2022-11-29T04:55:35.759Z,89574.72
2022-11-29T04:58:14.426Z,89581.03
2022-11-29T05:01:10.661Z,89572.50
2022-11-29T05:03:47.054Z,89585.03
2022-11-29T05:06:38.081Z,89583.56
2022-11-29T05:09:28.205Z,89588.19
2022-11-29T05:12:17.639Z,89592.09
2022-11-29T05:14:59.626Z,89593.13
2022-11-29T05:17:49.679Z,89588.59
2022-11-29T05:20:46.531Z,89601.94
2022-11-29T05:23:34.784Z,89604.44
2022-11-29T05:26:14.069Z,89606.28
2022-11-29T05:28:49.800Z,89602.22
2022-11-29T05:31:21.776Z,89600.34
2022-11-29T05:33:59.490Z,89611.69
2022-11-29T05:36:55.241Z,89616.66
2022-11-29T05:39:30.782Z,89615.06
2022-11-29T05:42:15.919Z,89612.94
2022-11-29T05:44:51.070Z,89614.75
2022-11-29T05:47:29.792Z,89599.47
2022-11-29T05:50:19.175Z,89612.13
2022-11-29T05:53:13.146Z,89618.28
2022-11-29T05:56:02.344Z,89596.88
2022-11-29T05:58:48.977Z,89582.50
2022-11-29T06:01:30.013Z,89604.69
2022-11-29T06:04:14.772Z,89599.56
2022-11-29T06:06:48.126Z,89609.31
2022-11-29T06:09:27.523Z,89592.53
2022-11-29T06:12:04.584Z,89613.47
2022-11-29T06:14:51.799Z,89615.38
2022-11-29T06:17:21.543Z,89602.56
2022-11-29T06:19:54.467Z,89598.63
2022-11-29T06:22:45.936Z,89607.47
2022-11-29T06:25:47.295Z,89611.63
2022-11-29T06:28:22.362Z,89610.47
2022-11-29T06:31:13.419Z,89610.00
2022-11-29T06:34:03.424Z,89617.22
2022-11-29T06:37:02.347Z,89609.16
2022-11-29T06:39:29.441Z,89622.31
2022-11-29T06:41:56.559Z,89615.81
2022-11-29T06:44:23.854Z,89606.88
2022-11-29T06:47:09.498Z,89616.09
2022-11-29T06:49:39.751Z,89624.00
2022-11-29T06:52:25.129Z,89626.59
2022-11-29T06:55:16.780Z,89628.22
2022-11-29T06:58:04.540Z,89623.66
2022-11-29T07:01:01.985Z,89634.84
2022-11-29T07:03:59.259Z,89630.91
2022-11-29T07:06:28.584Z,89625.84
2022-11-29T07:09:11.725Z,89625.75
2022-11-29T07:11:39.158Z,89627.72
2022-11-29T07:14:06.254Z,89614.97
2022-11-29T07:16:43.282Z,89614.44
2022-11-29T07:19:30.875Z,89621.34
2022-11-29T07:22:18.829Z,89629.06
2022-11-29T07:24:56.700Z,89627.63
2022-11-29T07:27:57.471Z,89625.56
2022-11-29T07:30:30.430Z,89617.25
2022-11-29T07:33:06.301Z,89603.88
2022-11-29T07:35:41.813Z,89604.44
2022-11-29T07:38:36.727Z,89606.22
2022-11-29T07:41:21.181Z,89610.72
2022-11-29T07:44:01.469Z,89621.16
2022-11-29T07:46:28.303Z,89632.00
2022-11-29T07:48:55.454Z,89638.69
2022-11-29T07:51:22.416Z,89628.84
2022-11-29T07:53:49.482Z,89628.63
2022-11-29T07:56:16.280Z,89624.81
2022-11-29T07:58:44.089Z,89613.63
2022-11-29T08:01:11.118Z,89626.25
2022-11-29T08:03:38.251Z,89615.69
2022-11-29T08:06:05.142Z,89608.94
2022-11-29T08:08:32.154Z,89609.94
2022-11-29T08:10:59.212Z,89615.38
2022-11-29T08:13:26.222Z,89630.53
2022-11-29T08:15:53.168Z,89619.44
2022-11-29T08:18:20.088Z,89621.44
2022-11-29T08:20:46.893Z,89614.97
2022-11-29T08:23:14.707Z,89608.88
2022-11-29T08:25:41.554Z,89611.06
2022-11-29T08:28:08.835Z,89615.84
2022-11-29T08:30:35.871Z,89620.72
2022-11-29T08:33:02.770Z,89613.34
2022-11-29T08:35:29.761Z,89615.03
2022-11-29T08:37:59.563Z,89609.00
2022-11-29T08:40:26.342Z,89593.03
2022-11-29T08:42:57.839Z,89606.38
2022-11-29T08:45:24.773Z,89597.16
2022-11-29T08:47:51.672Z,89592.19
2022-11-29T08:50:18.751Z,89589.31
2022-11-29T08:52:47.820Z,89601.63
2022-11-29T08:55:14.762Z,89586.91
2022-11-29T08:57:41.892Z,89592.72
2022-11-29T09:00:10.361Z,89578.69
2022-11-29T09:02:37.497Z,89592.53
2022-11-29T09:05:06.267Z,89577.72
2022-11-29T09:07:33.546Z,89577.94
2022-11-29T09:10:00.415Z,89574.97
2022-11-29T09:12:27.377Z,89572.88
2022-11-29T09:14:54.178Z,89567.13
2022-11-29T09:17:21.054Z,89573.66
2022-11-29T09:19:47.877Z,89570.56
2022-11-29T09:22:21.901Z,89567.19
2022-11-29T09:24:48.751Z,89579.50
2022-11-29T09:27:15.683Z,89560.13
2022-11-29T09:29:42.845Z,89560.13
2022-11-29T09:32:09.699Z,89555.94
2022-11-29T09:34:36.677Z,89551.69
2022-11-29T09:37:05.179Z,89542.91
2022-11-29T09:39:32.059Z,89549.34
2022-11-29T09:42:31.368Z,89555.38
2022-11-29T09:45:03.135Z,89550.25
2022-11-29T09:47:48.349Z,89543.81
2022-11-29T09:50:33.936Z,89543.47
2022-11-29T09:53:32.039Z,89550.41
2022-11-29T09:56:15.784Z,89537.28
2022-11-29T09:58:46.178Z,89542.13
2022-11-29T10:01:35.720Z,89543.88
2022-11-29T10:04:05.757Z,89540.09
2022-11-29T10:06:50.434Z,89547.28
2022-11-29T10:09:34.054Z,89530.47
2022-11-29T10:12:42.988Z,89529.16
2022-11-29T10:15:19.304Z,89534.47
2022-11-29T10:17:55.544Z,89531.56
2022-11-29T10:20:29.417Z,89536.88
2022-11-29T10:23:11.888Z,89530.25
2022-11-29T10:25:48.021Z,89526.50
2022-11-29T10:28:17.701Z,89530.53
2022-11-29T10:30:45.115Z,89532.00
2022-11-29T10:33:34.549Z,89536.13
2022-11-29T10:36:11.030Z,89537.50
2022-11-29T10:38:37.882Z,89538.28
2022-11-29T10:41:10.839Z,89542.34
2022-11-29T10:43:38.532Z,89537.00
2022-11-29T10:46:10.820Z,89532.38
2022-11-29T10:48:37.933Z,89529.72
2022-11-29T10:51:16.972Z,89532.47
2022-11-29T10:53:45.583Z,89521.56
2022-11-29T10:56:18.174Z,89525.72
2022-11-29T10:58:56.753Z,89523.97
2022-11-29T11:01:24.584Z,89534.13
2022-11-29T11:03:54.204Z,89547.91
2022-11-29T11:06:41.639Z,89549.28
2022-11-29T11:09:28.168Z,89546.91
2022-11-29T11:12:05.080Z,89531.44
2022-11-29T11:14:35.068Z,89547.66
2022-11-29T11:17:34.336Z,89544.31
2022-11-29T11:20:02.344Z,89540.88
2022-11-29T11:22:30.093Z,89536.28
2022-11-29T11:25:07.332Z,89534.25
2022-11-29T11:27:36.970Z,89529.81
2022-11-29T11:30:07.753Z,89525.91
2022-11-29T11:32:34.618Z,89526.41
2022-11-29T11:35:02.542Z,89528.22
2022-11-29T11:37:32.183Z,89508.94
2022-11-29T11:40:18.080Z,89498.09
2022-11-29T11:42:45.583Z,89514.91
2022-11-29T11:45:12.341Z,89516.47
2022-11-29T11:47:48.504Z,89514.00
2022-11-29T11:50:24.728Z,89514.91
2022-11-29T11:53:25.383Z,89510.31
2022-11-29T11:55:59.812Z,89511.00
2022-11-29T11:58:37.927Z,89520.84
2022-11-29T12:01:15.583Z,89527.63
2022-11-29T12:04:10.008Z,89526.69
2022-11-29T12:06:40.890Z,89522.13
2022-11-29T12:09:26.027Z,89521.16
2022-11-29T12:12:07.951Z,89522.84
2022-11-29T12:14:56.461Z,89518.72
2022-11-29T12:17:34.286Z,89523.31
2022-11-29T12:20:14.400Z,89513.25
2022-11-29T12:22:48.691Z,89505.94
2022-11-29T12:25:22.268Z,89518.59
2022-11-29T12:27:50.946Z,89525.50
2022-11-29T12:30:19.207Z,89511.66
2022-11-29T12:33:15.151Z,89520.84
2022-11-29T12:36:02.250Z,89525.91
2022-11-29T12:38:34.724Z,89529.75
2022-11-29T12:41:26.669Z,89524.44
2022-11-29T12:44:07.845Z,89526.03
2022-11-29T12:46:35.060Z,89525.81
2022-11-29T12:49:24.021Z,89529.19
2022-11-29T12:52:15.606Z,89534.00
2022-11-29T12:55:03.602Z,89518.69
2022-11-29T12:57:44.844Z,89520.97
2022-11-29T13:00:15.227Z,89513.50
2022-11-29T13:02:45.192Z,89515.56
2022-11-29T13:05:34.141Z,89504.06
2022-11-29T13:08:14.568Z,89512.16
2022-11-29T13:11:03.136Z,89513.53
2022-11-29T13:13:35.901Z,89514.38
2022-11-29T13:16:30.837Z,89513.84
2022-11-29T13:19:02.070Z,89513.56
2022-11-29T13:21:55.349Z,89514.88
2022-11-29T13:24:47.770Z,89523.28
2022-11-29T13:27:32.075Z,89514.69
2022-11-29T13:30:02.792Z,89522.22
2022-11-29T13:32:40.238Z,89518.84
2022-11-29T13:35:17.522Z,89524.03
2022-11-29T13:38:09.975Z,89528.06
2022-11-29T13:40:59.846Z,89533.56
2022-11-29T13:43:38.778Z,89537.59
2022-11-29T13:46:14.888Z,89539.88
2022-11-29T13:48:50.833Z,89540.16
2022-11-29T13:51:37.450Z,89534.56
2022-11-29T13:54:30.888Z,89520.94
2022-11-29T13:57:10.049Z,89550.50
2022-11-29T13:59:47.409Z,89537.25
2022-11-29T14:02:31.530Z,89547.50
2022-11-29T14:04:58.993Z,89560.59
2022-11-29T14:07:25.937Z,89559.28
2022-11-29T14:10:28.531Z,89566.97
2022-11-29T14:12:57.328Z,89562.22
2022-11-29T14:15:30.088Z,89572.34
2022-11-29T14:18:07.202Z,89578.59
2022-11-29T14:20:39.956Z,89574.75
2022-11-29T14:23:06.912Z,89571.81
2022-11-29T14:25:56.983Z,89575.00
2022-11-29T14:28:23.641Z,89566.53
2022-11-29T14:30:52.600Z,89574.75
2022-11-29T14:33:38.247Z,89575.31
2022-11-29T14:36:20.492Z,89576.59
2022-11-29T14:38:56.180Z,89566.78
2022-11-29T14:42:03.337Z,89567.88
2022-11-29T14:44:32.159Z,89571.09
2022-11-29T14:47:22.145Z,89575.97
2022-11-29T14:49:49.023Z,89569.84
2022-11-29T14:52:15.738Z,89577.06
2022-11-29T14:55:00.000Z,89575.97
2022-11-29T14:57:48.571Z,89567.81
2022-11-29T15:00:15.529Z,89556.91
2022-11-29T15:02:52.868Z,89563.06
2022-11-29T15:05:32.720Z,89560.94
2022-11-29T15:08:21.260Z,89577.91
2022-11-29T15:10:57.373Z,89576.81
2022-11-29T15:13:30.264Z,89557.13
2022-11-29T15:16:14.435Z,89570.00
2022-11-29T15:18:47.361Z,89574.38
2022-11-29T15:21:43.706Z,89561.38
2022-11-29T15:24:13.394Z,89572.19
2022-11-29T15:26:56.849Z,89572.84
2022-11-29T15:29:24.313Z,89575.34
2022-11-29T15:31:57.077Z,89564.75
2022-11-29T15:34:35.184Z,89573.88
2022-11-29T15:37:02.132Z,89572.75
2022-11-29T15:39:37.360Z,89563.94
2022-11-29T15:42:11.472Z,89578.19
2022-11-29T15:44:45.123Z,89569.81
2022-11-29T15:47:25.254Z,89580.22
2022-11-29T15:49:53.898Z,89582.28
2022-11-29T15:52:35.099Z,89555.97
2022-11-29T15:55:06.227Z,89565.56
2022-11-29T15:57:43.218Z,89571.06
2022-11-29T16:00:18.274Z,89583.81
2022-11-29T16:02:51.052Z,89570.84
2022-11-29T16:05:28.337Z,89579.63
2022-11-29T16:08:01.073Z,89568.03
2022-11-29T16:11:07.123Z,89576.97
2022-11-29T16:13:40.930Z,89574.63
2022-11-29T16:16:14.080Z,89567.88
2022-11-29T16:18:46.477Z,89565.00
2022-11-29T16:21:26.787Z,89579.66
2022-11-29T16:23:54.856Z,89571.75
2022-11-29T16:26:34.416Z,89570.84
2022-11-29T16:29:01.573Z,89577.47
2022-11-29T16:31:36.832Z,89587.66
2022-11-29T16:34:26.486Z,89584.72
2022-11-29T16:37:05.282Z,89593.94
2022-11-29T16:39:35.519Z,89586.91
2022-11-29T16:42:25.291Z,89607.47
2022-11-29T16:45:02.692Z,89602.63
2022-11-29T16:47:32.806Z,89606.72
2022-11-29T16:50:02.932Z,89606.16
2022-11-29T16:52:32.866Z,89605.97
2022-11-29T16:55:00.098Z,89599.91
2022-11-29T16:57:28.752Z,89591.97
2022-11-29T16:59:55.551Z,89603.72
2022-11-29T17:02:22.689Z,89603.69
2022-11-29T17:04:51.352Z,89602.22
2022-11-29T17:07:27.575Z,89606.03
2022-11-29T17:09:54.919Z,89609.28
2022-11-29T17:12:21.818Z,89600.44
2022-11-29T17:14:48.923Z,89599.25
2022-11-29T17:17:18.245Z,89597.69
2022-11-29T17:19:45.632Z,89603.84
2022-11-29T17:22:13.096Z,89602.13
2022-11-29T17:24:43.522Z,89599.38
2022-11-29T17:27:15.969Z,89600.38
2022-11-29T17:29:42.838Z,89609.94
2022-11-29T17:32:09.935Z,89598.75
2022-11-29T17:34:36.721Z,89603.91
2022-11-29T17:37:03.719Z,89596.22
2022-11-29T17:39:30.462Z,89588.81
2022-11-29T17:41:57.298Z,89590.66
2022-11-29T17:44:24.238Z,89592.13
2022-11-29T17:46:51.187Z,89599.88
2022-11-29T17:49:18.051Z,89601.53
2022-11-29T17:51:53.341Z,89598.41
2022-11-29T17:54:21.595Z,89601.19
2022-11-29T17:56:48.605Z,89593.19
2022-11-29T17:59:15.473Z,89616.78
2022-11-29T18:01:42.256Z,89606.25
2022-11-29T18:04:09.181Z,89610.50
2022-11-29T18:06:38.828Z,89604.31
2022-11-29T18:09:07.802Z,89607.28
2022-11-29T18:11:46.806Z,89616.84
2022-11-29T18:14:17.830Z,89618.75
2022-11-29T18:16:47.149Z,89623.91
2022-11-29T18:19:16.975Z,89618.25
2022-11-29T18:21:44.129Z,89623.69
2022-11-29T18:24:11.370Z,89625.94
2022-11-29T18:26:39.204Z,89623.59
2022-11-29T18:29:07.173Z,89624.19
2022-11-29T18:31:36.390Z,89631.88
2022-11-29T18:34:05.251Z,89630.97
2022-11-29T18:36:34.599Z,89629.72
2022-11-29T18:39:07.436Z,89632.06
2022-11-29T18:41:34.635Z,89615.88
2022-11-29T18:44:04.394Z,89633.25
2022-11-29T18:46:31.833Z,89622.06
2022-11-29T18:49:00.885Z,89627.03
2022-11-29T18:51:29.153Z,89617.88
2022-11-29T18:53:56.584Z,89611.41
2022-11-29T18:56:25.578Z,89626.88
2022-11-29T18:58:58.558Z,89622.19
2022-11-29T19:01:28.983Z,89616.75
2022-11-29T19:03:58.304Z,89615.78
2022-11-29T19:06:38.999Z,89619.63
2022-11-29T19:09:11.326Z,89616.19
2022-11-29T19:11:38.709Z,89621.91
2022-11-29T19:14:07.766Z,89610.97
2022-11-29T19:16:35.011Z,89633.78
2022-11-29T19:19:02.711Z,89618.13
2022-11-29T19:21:31.923Z,89622.56
2022-11-29T19:24:04.275Z,89622.00
2022-11-29T19:26:32.742Z,89623.88
2022-11-29T19:29:01.239Z,89618.78
2022-11-29T19:31:29.110Z,89609.72
2022-11-29T19:33:57.655Z,89612.03
2022-11-29T19:36:25.576Z,89624.66
2022-11-29T19:38:54.176Z,89626.75
2022-11-29T19:41:31.349Z,89620.84
2022-11-29T19:44:00.429Z,89622.13
2022-11-29T19:46:32.875Z,89614.09
2022-11-29T19:49:00.632Z,89618.72
2022-11-29T19:51:28.836Z,89623.78
2022-11-29T19:53:58.512Z,89617.00
2022-11-29T19:56:25.685Z,89606.28
2022-11-29T19:58:52.936Z,89600.88
2022-11-29T20:01:22.304Z,89609.28
2022-11-29T20:03:49.888Z,89608.97
2022-11-29T20:06:18.154Z,89613.69
2022-11-29T20:08:45.925Z,89624.38
2022-11-29T20:11:16.910Z,89610.00
2022-11-29T20:13:45.726Z,89614.59
2022-11-29T20:16:15.934Z,89620.31
2022-11-29T20:18:50.695Z,89618.38
2022-11-29T20:21:20.588Z,89607.41
2022-11-29T20:23:47.637Z,89611.50
2022-11-29T20:26:20.348Z,89609.28
2022-11-29T20:28:48.047Z,89605.19
2022-11-29T20:31:17.570Z,89605.44
2022-11-29T20:33:46.354Z,89614.91
2022-11-29T20:36:28.096Z,89615.69
2022-11-29T20:39:06.990Z,89604.53
2022-11-29T20:41:43.429Z,89605.78
2022-11-29T20:44:16.485Z,89607.75
2022-11-29T20:46:43.834Z,89608.38
2022-11-29T20:49:15.628Z,89609.81
2022-11-29T20:52:02.575Z,89617.19
2022-11-29T20:54:29.530Z,89619.53
2022-11-29T20:56:56.898Z,89627.53
2022-11-29T20:59:23.688Z,89624.28
2022-11-29T21:01:50.603Z,89619.84
2022-11-29T21:04:22.874Z,89619.53
2022-11-29T21:06:50.451Z,89615.69
2022-11-29T21:09:17.488Z,89616.69
2022-11-29T21:11:45.102Z,89612.28
2022-11-29T21:14:12.152Z,89613.22
2022-11-29T21:16:40.543Z,89620.84
2022-11-29T21:19:12.703Z,89608.53
2022-11-29T21:21:49.452Z,89615.47
2022-11-29T21:24:34.790Z,89627.53
2022-11-29T21:27:03.128Z,89611.34
2022-11-29T21:29:30.393Z,89607.78
2022-11-29T21:31:57.662Z,89609.28
2022-11-29T21:34:24.535Z,89612.13
2022-11-29T21:36:59.435Z,89615.06
2022-11-29T21:39:32.959Z,89629.34
2022-11-29T21:41:59.869Z,89625.56
2022-11-29T21:44:26.769Z,89628.78
2022-11-29T21:46:53.755Z,89619.28
2022-11-29T21:49:20.660Z,89614.97
2022-11-29T21:51:47.598Z,89624.00
2022-11-29T21:54:14.643Z,89635.50
2022-11-29T21:56:41.549Z,89632.59
2022-11-29T21:59:08.432Z,89643.44
2022-11-29T22:01:35.469Z,89642.41
2022-11-29T22:04:02.449Z,89639.44
2022-11-29T22:06:29.329Z,89637.81
2022-11-29T22:08:56.772Z,89628.84
2022-11-29T22:11:24.440Z,89631.91
2022-11-29T22:13:53.542Z,89634.59
2022-11-29T22:16:20.499Z,89640.34
2022-11-29T22:18:47.314Z,89629.47
2022-11-29T22:21:14.197Z,89631.25
2022-11-29T22:23:41.060Z,89635.06
2022-11-29T22:26:08.990Z,89631.66
2022-11-29T22:28:36.112Z,89624.47
2022-11-29T22:31:11.123Z,89622.84
2022-11-29T22:33:38.930Z,89627.13
2022-11-29T22:36:08.426Z,89617.69
2022-11-29T22:38:37.938Z,89629.75
2022-11-29T22:41:13.081Z,89625.44
2022-11-29T22:43:41.343Z,89620.88
2022-11-29T22:46:09.839Z,89621.31
2022-11-29T22:48:39.139Z,89617.69
2022-11-29T22:51:14.200Z,89625.47
2022-11-29T22:53:43.443Z,89627.97
2022-11-29T22:56:11.648Z,89630.63
2022-11-29T22:58:38.497Z,89635.59
2022-11-29T23:01:13.861Z,89632.41
2022-11-29T23:03:43.120Z,89630.34
2022-11-29T23:06:16.536Z,89628.31
2022-11-29T23:08:44.831Z,89628.91
2022-11-29T23:11:14.515Z,89638.31
2022-11-29T23:13:42.594Z,89634.47
2022-11-29T23:16:15.321Z,89640.66
2022-11-29T23:18:42.935Z,89640.38
2022-11-29T23:21:19.500Z,89629.47
2022-11-29T23:23:50.231Z,89632.44
2022-11-29T23:26:26.125Z,89640.06
2022-11-29T23:28:53.662Z,89642.13
2022-11-29T23:31:21.148Z,89637.72
2022-11-29T23:33:48.872Z,89638.16
2022-11-29T23:36:16.208Z,89626.53
2022-11-29T23:38:43.409Z,89619.34
2022-11-29T23:41:11.249Z,89619.78
2022-11-29T23:43:40.971Z,89617.59
2022-11-29T23:46:22.441Z,89619.22
2022-11-29T23:48:49.894Z,89623.47
2022-11-29T23:51:17.765Z,89621.53
2022-11-29T23:53:44.940Z,89629.47
2022-11-29T23:56:17.113Z,89639.47
2022-11-29T23:58:45.101Z,89636.81
